Time;durP1;ratioP1;P1;durP2;ratioP2;P2;SDS_P1;SDS_P2;PMS_P1;PMS_P2;Temp;Humidity;BMP_temperature;BMP_pressure;BME280_temperature;BME280_humidity;BME280_pressure;Samples;Min_cycle;Max_cycle;Signal;HPM_P1;HPM_P2
2021/11/08 00:01:42;;;;;;;4.85;2.00;;;;;;;8.68;73.38;100794.88;5008168;28;20025;-43
2021/11/08 00:04:07;;;;;;;3.20;2.38;;;;;;;8.70;73.31;100795.75;4998421;28;20030;-43
2021/11/08 00:06:33;;;;;;;3.72;2.13;;;;;;;8.69;73.34;100794.00;5011662;28;20030;-43
2021/11/08 00:08:59;;;;;;;5.38;2.45;;;;;;;8.68;73.21;100795.78;5005815;28;20076;-42
2021/11/08 00:11:25;;;;;;;5.40;2.50;;;;;;;8.69;73.27;100783.47;4994524;28;20034;-43
2021/11/08 00:13:51;;;;;;;3.63;2.25;;;;;;;8.67;73.19;100788.75;5010607;28;20537;-43
2021/11/08 00:16:43;;;;;;;3.05;2.38;;;;;;;8.68;73.27;100794.88;5012407;28;20497;-43
2021/11/08 00:19:24;;;;;;;6.85;2.83;;;;;;;8.68;73.39;100793.16;5006593;28;20022;-43
2021/11/08 00:21:51;;;;;;;7.50;3.05;;;;;;;8.67;73.16;100796.63;5012115;28;20040;-45
2021/11/08 00:24:23;;;;;;;3.80;1.90;;;;;;;8.68;73.20;100797.53;5012371;28;20034;-44
2021/11/08 00:26:48;;;;;;;4.57;2.55;;;;;;;8.67;73.21;100809.78;5012417;28;20049;-44
2021/11/08 00:29:16;;;;;;;3.58;2.20;;;;;;;8.67;73.16;100795.78;4997699;28;20060;-45
2021/11/08 00:31:42;;;;;;;3.85;2.33;;;;;;;8.66;73.18;100804.50;4992953;28;20521;-45
2021/11/08 00:34:07;;;;;;;3.28;2.00;;;;;;;8.69;73.08;100799.25;5009793;28;20029;-45
2021/11/08 00:36:33;;;;;;;6.47;3.75;;;;;;;8.68;73.11;100808.03;5004887;28;20018;-44
2021/11/08 00:38:59;;;;;;;5.47;2.35;;;;;;;8.65;73.19;100808.91;5011060;28;20531;-45
2021/11/08 00:41:24;;;;;;;4.97;3.10;;;;;;;8.65;73.06;100813.28;5004702;28;20033;-44
2021/11/08 00:43:49;;;;;;;4.10;2.22;;;;;;;8.66;73.27;100815.03;4997561;28;20041;-43
2021/11/08 00:46:15;;;;;;;5.63;2.33;;;;;;;8.66;73.07;100820.28;5008542;28;20084;-42
2021/11/08 00:48:42;;;;;;;4.65;2.45;;;;;;;8.66;73.34;100820.28;5011062;28;20542;-44
2021/11/08 00:51:08;;;;;;;4.45;2.45;;;;;;;8.65;73.11;100823.81;5009044;28;20030;-44
2021/11/08 00:53:35;;;;;;;4.40;2.92;;;;;;;8.65;73.20;100819.44;5002920;28;20034;-44
2021/11/08 00:56:03;;;;;;;2.78;2.30;;;;;;;8.64;73.22;100822.91;5008004;28;20033;-44
2021/11/08 00:58:39;;;;;;;4.93;2.35;;;;;;;8.64;73.42;100828.16;5010506;28;20026;-43
2021/11/08 01:01:07;;;;;;;4.18;2.22;;;;;;;8.66;73.16;100836.06;5006995;28;20057;-43
2021/11/08 01:03:36;;;;;;;3.67;2.35;;;;;;;8.67;73.07;100841.31;5008815;28;20025;-43
2021/11/08 01:06:02;;;;;;;5.22;2.88;;;;;;;8.67;73.14;100840.47;5006737;28;20082;-44
2021/11/08 01:08:28;;;;;;;3.47;2.65;;;;;;;8.64;73.11;100837.84;5008996;28;20022;-43
2021/11/08 01:10:54;;;;;;;6.07;2.70;;;;;;;8.63;73.06;100843.97;5007485;28;20052;-44
2021/11/08 01:13:20;;;;;;;4.93;2.45;;;;;;;8.63;72.98;100849.22;5015003;28;20413;-44
2021/11/08 01:15:45;;;;;;;3.72;2.47;;;;;;;8.63;73.19;100849.22;5007157;28;20500;-45
2021/11/08 01:18:11;;;;;;;2.90;2.38;;;;;;;8.63;73.17;100836.09;5003856;28;20040;-44
2021/11/08 01:20:36;;;;;;;5.65;2.65;;;;;;;8.62;73.23;100844.81;5004378;28;20030;-44
2021/11/08 01:23:04;;;;;;;2.30;2.10;;;;;;;8.63;73.16;100842.19;5000969;28;20057;-43
2021/11/08 01:25:31;;;;;;;5.40;2.92;;;;;;;8.62;73.28;100850.09;5011079;28;20018;-43
2021/11/08 01:27:58;;;;;;;6.70;2.60;;;;;;;8.64;73.25;100853.59;5004433;28;20061;-44
2021/11/08 01:30:26;;;;;;;5.88;2.63;;;;;;;8.63;73.16;100851.88;5008662;28;20033;-44
2021/11/08 01:33:05;;;;;;;5.30;2.95;;;;;;;8.64;73.16;100853.59;5003842;28;20096;-43
2021/11/08 01:35:57;;;;;;;2.50;2.25;;;;;;;8.61;73.14;100843.97;5012404;28;20026;-43
2021/11/08 01:38:35;;;;;;;5.55;2.42;;;;;;;8.61;73.11;100849.22;5006418;28;20481;-43
2021/11/08 01:41:01;;;;;;;5.50;2.95;;;;;;;8.60;73.22;100847.44;5008373;28;20038;-44
2021/11/08 01:43:26;;;;;;;4.63;3.38;;;;;;;8.59;73.24;100846.59;5004410;28;20464;-44
2021/11/08 01:45:51;;;;;;;3.55;2.40;;;;;;;8.60;73.10;100848.34;5003076;28;20034;-44
2021/11/08 01:48:17;;;;;;;4.40;2.55;;;;;;;8.60;73.30;100858.84;5010646;28;20056;-43
2021/11/08 01:50:43;;;;;;;3.28;2.92;;;;;;;8.59;73.00;100851.84;4998296;28;20063;-44
2021/11/08 01:53:11;;;;;;;3.45;2.22;;;;;;;8.60;73.21;100852.72;5009112;28;20030;-44
2021/11/08 01:55:37;;;;;;;5.30;2.83;;;;;;;8.58;73.28;100860.59;4996145;28;20026;-45
2021/11/08 01:58:05;;;;;;;3.10;2.15;;;;;;;8.59;73.08;100857.09;5008595;28;20034;-43
2021/11/08 02:00:32;;;;;;;4.72;2.72;;;;;;;8.59;73.21;100869.38;5002628;28;20033;-43
2021/11/08 02:02:57;;;;;;;4.03;2.60;;;;;;;8.60;72.91;100866.75;5013729;28;20034;-43
2021/11/08 02:05:27;;;;;;;3.58;2.53;;;;;;;8.59;73.11;100870.25;5004411;28;20045;-45
2021/11/08 02:07:52;;;;;;;3.33;2.10;;;;;;;8.61;73.26;100867.63;5009754;28;20029;-45
2021/11/08 02:10:20;;;;;;;3.80;2.25;;;;;;;8.59;72.96;100859.75;5013401;28;20359;-43
2021/11/08 02:12:46;;;;;;;9.73;2.88;;;;;;;8.60;73.18;100873.75;5004996;28;20033;-43
2021/11/08 02:15:15;;;;;;;6.68;2.97;;;;;;;8.63;72.95;100880.78;4998736;28;20026;-42
2021/11/08 02:17:43;;;;;;;3.53;2.42;;;;;;;8.60;73.10;100885.16;4996236;28;20532;-43
2021/11/08 02:20:13;;;;;;;8.20;2.60;;;;;;;8.60;72.94;100890.41;5012538;28;20026;-43
2021/11/08 02:22:39;;;;;;;4.13;2.45;;;;;;;8.59;73.01;100888.66;5003333;28;20030;-44
2021/11/08 02:25:05;;;;;;;2.83;2.25;;;;;;;8.59;73.22;100893.91;5002077;28;20029;-44
2021/11/08 02:27:31;;;;;;;7.88;2.95;;;;;;;8.56;73.30;100901.78;4996802;28;20505;-43
2021/11/08 02:29:56;;;;;;;3.53;2.35;;;;;;;8.58;73.07;100902.66;5011963;28;20026;-44
2021/11/08 02:32:21;;;;;;;4.80;2.50;;;;;;;8.58;73.03;100896.53;5013491;28;20474;-43
2021/11/08 02:34:47;;;;;;;4.03;2.20;;;;;;;8.59;73.03;100906.19;5011716;28;20029;-44
2021/11/08 02:37:12;;;;;;;5.28;2.78;;;;;;;8.58;72.57;100907.91;5009709;28;20570;-43
2021/11/08 02:39:39;;;;;;;3.53;3.20;;;;;;;8.58;73.07;100907.91;5012729;28;20061;-44
2021/11/08 02:42:06;;;;;;;4.40;2.38;;;;;;;8.56;73.05;100907.06;5011476;28;20025;-44
2021/11/08 02:44:32;;;;;;;3.95;2.35;;;;;;;8.57;72.95;100902.69;5010542;28;20030;-45
2021/11/08 02:46:58;;;;;;;3.70;2.30;;;;;;;8.56;73.14;100903.53;5013096;28;20026;-44
2021/11/08 02:49:30;;;;;;;2.85;2.60;;;;;;;8.56;73.21;100903.53;5003434;28;20606;-44
2021/11/08 02:52:06;;;;;;;3.83;2.50;;;;;;;8.57;72.95;100911.44;4997240;28;20502;-44
2021/11/08 02:54:35;;;;;;;2.33;2.13;;;;;;;8.56;72.97;100917.56;5000996;28;20026;-43
2021/11/08 02:57:01;;;;;;;4.05;2.00;;;;;;;8.55;73.08;100907.94;5011902;28;20045;-43
2021/11/08 02:59:29;;;;;;;4.95;2.58;;;;;;;8.54;73.20;100911.41;5006365;28;20023;-44
2021/11/08 03:01:55;;;;;;;5.05;2.50;;;;;;;8.52;73.09;100913.13;5008309;28;20485;-44
2021/11/08 03:04:30;;;;;;;3.00;2.40;;;;;;;8.54;72.99;100911.41;4999696;28;20536;-45
2021/11/08 03:06:56;;;;;;;4.57;2.35;;;;;;;8.51;73.22;100911.41;5010502;28;20408;-43
2021/11/08 03:09:30;;;;;;;3.78;2.65;;;;;;;8.54;73.05;100918.44;5004377;28;20036;-43
2021/11/08 03:11:55;;;;;;;4.65;2.65;;;;;;;8.52;73.25;100922.75;5012257;28;20446;-45
2021/11/08 03:14:24;;;;;;;3.00;2.53;;;;;;;8.53;73.17;100924.50;5013048;28;20498;-43
2021/11/08 03:16:55;;;;;;;5.30;2.20;;;;;;;8.52;73.13;100928.91;5008991;28;20037;-43
2021/11/08 03:19:32;;;;;;;6.95;3.60;;;;;;;8.53;73.06;100932.41;4998584;28;20084;-43
2021/11/08 03:22:14;;;;;;;2.72;2.33;;;;;;;8.50;72.93;100930.66;5005316;28;20037;-43
2021/11/08 03:24:42;;;;;;;5.30;2.92;;;;;;;8.50;73.12;100935.91;5003343;28;20042;-44
2021/11/08 03:27:17;;;;;;;3.95;2.58;;;;;;;8.50;73.12;100938.53;4998198;28;20026;-43
2021/11/08 03:29:54;;;;;;;2.78;2.10;;;;;;;8.49;72.99;100936.78;5009434;28;20046;-43
2021/11/08 03:32:21;;;;;;;5.78;2.97;;;;;;;8.51;73.07;100937.69;5007311;28;20022;-44
2021/11/08 03:37:22;;;;;;;4.28;2.50;;;;;;;8.51;73.08;100942.06;5022575;28;20041;-45
2021/11/08 03:39:49;;;;;;;5.38;2.40;;;;;;;8.53;72.95;100945.53;5005044;28;20405;-44
2021/11/08 03:42:15;;;;;;;5.45;2.40;;;;;;;8.51;72.97;100952.56;5002450;28;20095;-44
2021/11/08 03:44:41;;;;;;;4.65;2.42;;;;;;;8.50;73.05;100951.69;4995341;28;20022;-42
2021/11/08 03:47:06;;;;;;;6.18;2.80;;;;;;;8.51;73.07;100957.81;4997919;28;20529;-43
2021/11/08 03:49:32;;;;;;;4.00;2.72;;;;;;;8.50;73.06;100967.44;5011852;28;20043;-44
2021/11/08 03:52:00;;;;;;;3.67;2.05;;;;;;;8.50;73.08;100967.44;5002610;28;20069;-42
2021/11/08 03:54:27;;;;;;;5.03;2.70;;;;;;;8.46;73.20;100977.09;5007646;28;20440;-44
2021/11/08 03:56:52;;;;;;;4.05;2.67;;;;;;;8.47;73.04;100972.69;5010910;28;20034;-43
2021/11/08 03:59:17;;;;;;;3.05;2.72;;;;;;;8.49;72.95;100978.84;4998847;28;20404;-44
2021/11/08 04:01:43;;;;;;;4.07;2.83;;;;;;;8.49;73.02;100986.72;5004174;28;20080;-44
2021/11/08 04:04:08;;;;;;;4.53;3.10;;;;;;;8.48;73.00;100993.72;5004064;28;20480;-44
2021/11/08 04:06:35;;;;;;;3.45;2.78;;;;;;;8.49;72.92;100997.25;5002886;28;20017;-43
2021/11/08 04:09:01;;;;;;;5.03;2.50;;;;;;;8.49;72.89;100999.88;4999598;28;20034;-43
2021/11/08 04:11:28;;;;;;;3.67;3.05;;;;;;;8.49;72.96;101005.13;5007904;28;20080;-43
2021/11/08 04:13:57;;;;;;;6.43;3.10;;;;;;;8.48;72.97;101006.88;5011212;28;20026;-45
2021/11/08 04:16:25;;;;;;;4.05;2.60;;;;;;;8.48;72.83;101006.00;5005512;28;20026;-43
2021/11/08 04:18:51;;;;;;;4.28;3.10;;;;;;;8.47;72.87;101014.75;5011870;28;20117;-44
2021/11/08 04:21:18;;;;;;;4.60;2.60;;;;;;;8.45;73.03;101021.75;5012000;28;20034;-43
2021/11/08 04:23:44;;;;;;;4.55;2.90;;;;;;;8.45;72.92;101011.25;5003800;28;20080;-44
2021/11/08 04:26:11;;;;;;;3.65;2.72;;;;;;;8.46;72.85;101018.25;5001015;28;20516;-43
2021/11/08 04:28:37;;;;;;;6.45;2.65;;;;;;;8.47;72.99;101017.38;5010547;28;20042;-42
2021/11/08 04:31:02;;;;;;;5.90;2.80;;;;;;;8.45;72.96;101022.66;5009328;28;20397;-44
2021/11/08 04:33:41;;;;;;;4.07;2.97;;;;;;;8.46;73.02;101023.50;5001888;28;20040;-44
2021/11/08 04:38:50;;;;;;;6.78;3.03;;;;;;;8.45;72.95;101027.91;5009285;28;20042;-45
2021/11/08 04:43:53;;;;;;;5.68;3.88;;;;;;;8.43;73.09;101027.00;5008883;28;20038;-44
2021/11/08 04:51:43;;;;;;;4.18;3.03;;;;;;;8.43;73.17;101026.13;5010318;28;20041;-44
2021/11/08 05:31:49;;;;;;;4.15;3.33;;;;;;;8.36;72.95;101058.53;5013591;28;20022;-43
2021/11/08 05:34:16;;;;;;;4.95;3.63;;;;;;;8.34;73.06;101066.41;5009860;28;20026;-43
2021/11/08 05:36:44;;;;;;;4.25;3.03;;;;;;;8.36;73.00;101079.56;5014422;28;20025;-44
2021/11/08 05:39:10;;;;;;;7.35;3.67;;;;;;;8.37;73.21;101073.41;4995573;28;20561;-43
2021/11/08 05:41:36;;;;;;;6.03;3.33;;;;;;;8.36;73.00;101082.19;5003087;28;20042;-44
2021/11/08 05:44:03;;;;;;;4.32;3.20;;;;;;;8.37;72.96;101082.16;5005606;28;20429;-43
2021/11/08 05:46:29;;;;;;;4.15;3.15;;;;;;;8.38;73.01;101083.94;5014096;28;20026;-43
2021/11/08 05:48:55;;;;;;;3.97;2.95;;;;;;;8.38;73.01;101085.69;5003938;28;20239;-43
2021/11/08 05:51:21;;;;;;;4.43;3.53;;;;;;;8.36;73.02;101083.03;5000303;28;20077;-43
2021/11/08 05:53:47;;;;;;;5.88;3.28;;;;;;;8.37;72.86;101081.31;5008984;28;20042;-43
2021/11/08 05:56:21;;;;;;;7.70;4.82;;;;;;;8.37;72.92;101086.56;5002448;28;20018;-44
2021/11/08 05:59:04;;;;;;;4.05;3.53;;;;;;;8.34;73.02;101088.28;5000278;28;20120;-43
2021/11/08 06:50:28;;;;;;;5.38;3.47;;;;;;;8.29;73.08;101147.81;5004442;28;20124;-41
2021/11/08 06:53:00;;;;;;;5.22;4.03;;;;;;;8.29;72.83;101150.44;5012429;28;20525;-42
2021/11/08 06:55:25;;;;;;;5.65;2.85;;;;;;;8.27;72.84;101156.56;5013812;28;20022;-42
2021/11/08 06:57:57;;;;;;;5.13;3.67;;;;;;;8.28;73.06;101159.22;5010022;28;20056;-43
2021/11/08 07:00:25;;;;;;;5.35;4.18;;;;;;;8.26;73.17;101168.81;5010239;28;20057;-42
2021/11/08 07:02:51;;;;;;;6.32;4.32;;;;;;;8.27;73.00;101175.81;4995306;28;20439;-42
2021/11/08 07:05:16;;;;;;;5.25;3.42;;;;;;;8.28;73.04;101164.47;4994852;28;20023;-42
2021/11/08 07:07:42;;;;;;;5.65;3.95;;;;;;;8.29;73.06;101181.09;5005916;28;20064;-41
2021/11/08 07:10:07;;;;;;;6.55;3.72;;;;;;;8.29;73.03;101173.22;4998194;28;20708;-42
2021/11/08 07:12:33;;;;;;;6.80;3.90;;;;;;;8.29;72.95;101189.88;4994357;28;20026;-43
2021/11/08 07:14:58;;;;;;;4.72;4.20;;;;;;;8.30;73.08;101185.50;5004018;28;20054;-42
2021/11/08 07:17:24;;;;;;;5.57;3.92;;;;;;;8.27;73.06;101188.97;4996437;28;20029;-42
2021/11/08 07:19:49;;;;;;;3.70;3.40;;;;;;;8.28;73.06;101184.59;5012383;28;20390;-42
2021/11/08 07:22:15;;;;;;;6.97;3.97;;;;;;;8.29;72.88;101178.47;5005766;28;20027;-42
2021/11/08 07:24:40;;;;;;;6.95;3.70;;;;;;;8.28;73.01;101185.50;5005799;28;20026;-46
2021/11/08 07:27:06;;;;;;;7.07;3.60;;;;;;;8.29;73.02;101196.88;4998075;28;20076;-43
2021/11/08 07:29:36;;;;;;;5.97;3.65;;;;;;;8.28;72.81;101201.25;5011592;28;20080;-43
2021/11/08 07:32:01;;;;;;;5.57;4.43;;;;;;;8.28;73.04;101200.38;5011219;28;20544;-45
2021/11/08 07:34:27;;;;;;;7.07;4.07;;;;;;;8.27;73.06;101202.09;5011001;28;20037;-42
2021/11/08 07:36:53;;;;;;;4.75;3.75;;;;;;;8.27;72.94;101204.72;4993926;28;20025;-42
2021/11/08 07:39:19;;;;;;;5.53;3.63;;;;;;;8.25;72.95;101203.84;5004796;28;20662;-42
2021/11/08 07:41:44;;;;;;;3.97;3.47;;;;;;;8.26;73.13;101204.72;5004496;28;20095;-42
2021/11/08 07:44:10;;;;;;;6.82;3.95;;;;;;;8.26;73.41;101213.50;5005558;28;20413;-42
2021/11/08 07:46:35;;;;;;;4.65;4.00;;;;;;;8.26;73.21;101220.47;4980648;28;20034;-44
2021/11/08 07:49:01;;;;;;;7.07;3.92;;;;;;;8.25;73.14;101224.00;5002947;28;20492;-43
2021/11/08 07:51:26;;;;;;;6.47;3.95;;;;;;;8.26;73.20;101226.63;5000405;28;20033;-42
2021/11/08 07:53:51;;;;;;;6.78;4.03;;;;;;;8.26;73.25;101231.88;5000607;28;20022;-42
2021/11/08 07:56:17;;;;;;;7.32;4.72;;;;;;;8.26;73.28;101217.84;5002860;28;20026;-44
2021/11/08 07:58:43;;;;;;;6.13;3.78;;;;;;;8.27;73.29;101223.13;5002917;28;20022;-42
2021/11/08 08:01:09;;;;;;;6.30;3.60;;;;;;;8.27;73.20;101227.53;5008786;28;20033;-42
2021/11/08 08:03:35;;;;;;;5.68;3.80;;;;;;;8.25;73.13;101229.25;5005391;28;20037;-42
2021/11/08 08:06:02;;;;;;;5.78;4.95;;;;;;;8.27;73.25;101222.28;5003980;28;20023;-43
2021/11/08 08:08:27;;;;;;;6.25;4.40;;;;;;;8.27;73.33;101233.66;5004057;28;20026;-42
2021/11/08 08:10:53;;;;;;;5.50;3.60;;;;;;;8.26;73.25;101231.00;4995483;28;20371;-43
2021/11/08 08:13:26;;;;;;;7.53;3.85;;;;;;;8.26;73.30;101231.00;5008977;28;20061;-42
2021/11/08 08:15:54;;;;;;;6.55;4.00;;;;;;;8.26;73.25;101234.53;4993995;28;20026;-42
2021/11/08 08:18:20;;;;;;;6.05;3.60;;;;;;;8.25;73.30;101230.13;5008741;28;20449;-42
2021/11/08 08:20:46;;;;;;;3.75;3.42;;;;;;;8.26;73.42;101237.16;5010063;28;20032;-43
2021/11/08 08:23:11;;;;;;;4.80;3.63;;;;;;;8.25;73.24;101219.63;5007549;28;20026;-43
2021/11/08 08:25:37;;;;;;;5.68;3.90;;;;;;;8.26;73.47;101231.00;5006542;28;20034;-41
2021/11/08 08:28:02;;;;;;;12.60;3.95;;;;;;;8.27;73.26;101235.41;5003737;28;20034;-42
2021/11/08 08:30:28;;;;;;;4.45;3.38;;;;;;;8.26;73.38;101242.41;5000403;28;20034;-42
2021/11/08 08:32:54;;;;;;;7.93;4.80;;;;;;;8.26;73.32;101237.16;4995891;28;20455;-42
2021/11/08 08:35:19;;;;;;;5.15;4.00;;;;;;;8.25;73.31;101229.25;4978329;28;20049;-43
2021/11/08 08:37:45;;;;;;;7.82;4.60;;;;;;;8.26;73.46;101234.53;4998763;28;20125;-43
2021/11/08 08:40:11;;;;;;;10.52;5.88;;;;;;;8.26;73.48;101231.88;5001005;28;20026;-43
2021/11/08 08:42:36;;;;;;;7.65;6.43;;;;;;;8.27;73.55;101235.41;5009116;28;20112;-43
2021/11/08 08:45:04;;;;;;;11.27;7.75;;;;;;;8.27;73.55;101236.28;5010567;28;20034;-42
2021/11/08 08:47:29;;;;;;;9.15;6.75;;;;;;;8.27;73.56;101238.03;4982735;28;20030;-43
2021/11/08 08:49:55;;;;;;;7.50;5.78;;;;;;;8.27;73.59;101248.56;4998872;28;20056;-42
2021/11/08 08:52:22;;;;;;;7.55;5.97;;;;;;;8.26;73.70;101252.91;5002926;28;20475;-42
2021/11/08 08:54:47;;;;;;;8.68;6.18;;;;;;;8.28;73.59;101250.31;5005535;28;20034;-42
2021/11/08 08:57:13;;;;;;;8.02;5.63;;;;;;;8.28;73.66;101258.19;5007035;28;20059;-41
2021/11/08 08:59:39;;;;;;;7.93;5.40;;;;;;;8.28;73.73;101256.44;5000451;28;20035;-42
2021/11/08 09:02:05;;;;;;;11.05;5.93;;;;;;;8.29;73.58;101258.22;5000484;28;20034;-44
2021/11/08 09:04:31;;;;;;;6.65;5.85;;;;;;;8.31;73.60;101256.47;5002322;28;20399;-43
2021/11/08 09:06:59;;;;;;;8.52;5.43;;;;;;;8.30;73.69;101254.72;4993309;28;20037;-43
2021/11/08 09:09:24;;;;;;;8.07;5.25;;;;;;;8.32;73.67;101257.34;5021091;28;20041;-42
2021/11/08 09:11:50;;;;;;;10.55;7.40;;;;;;;8.33;73.54;101259.09;4998647;28;20022;-42
2021/11/08 09:14:15;;;;;;;6.70;5.53;;;;;;;8.31;73.70;101261.72;5010250;28;20025;-42
2021/11/08 09:16:41;;;;;;;9.07;6.03;;;;;;;8.34;73.64;101267.00;5009809;28;20034;-43
2021/11/08 09:19:06;;;;;;;11.45;6.05;;;;;;;8.35;73.71;101281.03;4995591;28;20076;-42
2021/11/08 09:21:32;;;;;;;8.10;5.80;;;;;;;8.37;73.63;101281.06;4998006;28;20041;-42
2021/11/08 09:24:00;;;;;;;6.40;5.57;;;;;;;8.37;73.71;101283.69;5001896;28;20022;-42
2021/11/08 09:26:28;;;;;;;6.55;5.47;;;;;;;8.37;73.75;101284.56;5002441;28;20050;-43
2021/11/08 09:28:54;;;;;;;7.70;5.45;;;;;;;8.38;73.65;101280.19;5006834;28;20033;-45
2021/11/08 09:31:20;;;;;;;7.72;5.38;;;;;;;8.38;73.58;101288.97;4983209;28;20030;-42
2021/11/08 09:33:49;;;;;;;7.95;5.07;;;;;;;8.41;73.75;101293.38;4999314;28;20654;-42
2021/11/08 09:36:15;;;;;;;9.45;5.00;;;;;;;8.40;73.73;101303.00;4994721;28;20479;-43
2021/11/08 09:38:50;;;;;;;10.18;6.03;;;;;;;8.40;73.54;101307.38;5000723;28;20026;-43
2021/11/08 09:41:18;;;;;;;6.45;4.68;;;;;;;8.42;73.64;101310.88;5003011;28;20175;-42
2021/11/08 09:43:43;;;;;;;6.28;4.75;;;;;;;8.41;73.71;101311.75;4997245;28;20045;-43
2021/11/08 09:46:09;;;;;;;7.00;4.93;;;;;;;8.42;73.62;101318.78;5008039;28;20031;-43
2021/11/08 09:48:40;;;;;;;9.55;4.95;;;;;;;8.44;73.62;101311.81;5001299;28;20080;-43
2021/11/08 09:51:10;;;;;;;9.48;5.00;;;;;;;8.42;73.60;101314.41;4964395;28;1023360;-43
2021/11/08 09:53:35;;;;;;;8.75;5.28;;;;;;;8.43;73.69;101323.16;5002921;28;20061;-43
2021/11/08 09:56:03;;;;;;;7.05;5.38;;;;;;;8.44;73.54;101317.91;5006272;28;20057;-43
2021/11/08 09:58:28;;;;;;;8.85;6.13;;;;;;;8.45;73.63;101313.56;5002291;28;20698;-43
2021/11/08 10:00:56;;;;;;;5.80;5.13;;;;;;;8.46;73.76;101323.19;5008340;28;20060;-42
2021/11/08 10:03:29;;;;;;;6.15;4.95;;;;;;;8.45;73.68;101317.09;5014615;28;20049;-42
2021/11/08 10:05:56;;;;;;;8.73;5.90;;;;;;;8.47;73.69;101327.59;5011384;28;20390;-44
2021/11/08 10:08:27;;;;;;;6.90;5.55;;;;;;;8.47;73.73;101319.69;5006068;28;20495;-43
2021/11/08 10:10:58;;;;;;;8.88;5.88;;;;;;;8.47;73.76;101324.94;5012146;28;20495;-44
2021/11/08 10:13:26;;;;;;;10.18;6.20;;;;;;;8.48;73.67;101321.47;5010277;28;20033;-44
2021/11/08 10:15:55;;;;;;;7.13;5.72;;;;;;;8.48;73.72;101321.47;5009591;28;20076;-45
2021/11/08 10:18:22;;;;;;;10.15;5.53;;;;;;;8.48;73.83;101321.47;4997734;28;20072;-44
2021/11/08 10:20:50;;;;;;;9.73;6.35;;;;;;;8.48;73.69;101321.47;5008223;28;20034;-45
2021/11/08 10:23:18;;;;;;;7.50;5.15;;;;;;;8.49;73.69;101323.25;5003058;28;20030;-44
2021/11/08 10:25:44;;;;;;;7.43;5.43;;;;;;;8.50;73.72;101324.13;5009856;28;20544;-44
2021/11/08 10:28:28;;;;;;;6.85;5.22;;;;;;;8.50;73.67;101325.00;5000211;28;20065;-44
2021/11/08 10:30:57;;;;;;;6.88;4.90;;;;;;;8.48;73.51;101318.84;5000981;28;20042;-45
2021/11/08 10:33:25;;;;;;;6.18;5.57;;;;;;;8.50;73.83;101322.38;5005000;28;20655;-44
2021/11/08 10:35:53;;;;;;;6.07;5.47;;;;;;;8.49;73.70;101317.97;5004486;28;20475;-45
2021/11/08 10:38:23;;;;;;;8.48;5.88;;;;;;;8.50;73.68;101322.38;5002785;28;20383;-45
2021/11/08 10:40:51;;;;;;;8.18;6.32;;;;;;;8.50;73.69;101324.13;5004935;28;20035;-44
2021/11/08 10:43:36;;;;;;;9.13;5.55;;;;;;;8.50;73.66;101318.88;4999786;28;20050;-44
2021/11/08 10:46:08;;;;;;;6.28;5.03;;;;;;;8.49;73.68;101323.25;5008236;28;20038;-44
2021/11/08 10:48:37;;;;;;;7.55;5.85;;;;;;;8.49;73.62;101328.50;5000341;28;20114;-44
2021/11/08 10:51:05;;;;;;;8.68;6.15;;;;;;;8.48;73.75;101327.59;5013624;28;20390;-45
2021/11/08 10:53:31;;;;;;;8.40;4.93;;;;;;;8.48;73.54;101324.13;5025288;28;20080;-44
2021/11/08 10:56:06;;;;;;;7.07;5.53;;;;;;;8.48;73.64;101332.00;5000579;28;20045;-44
2021/11/08 10:58:32;;;;;;;9.40;5.57;;;;;;;8.48;73.53;101326.75;5001223;28;20104;-44
2021/11/08 11:01:01;;;;;;;10.02;6.72;;;;;;;8.48;73.59;101329.38;5004041;28;20030;-44
2021/11/08 11:03:28;;;;;;;9.00;6.15;;;;;;;8.46;73.64;101325.81;4996276;28;20502;-44
2021/11/08 11:06:05;;;;;;;10.05;6.10;;;;;;;8.45;73.57;101326.69;4993478;28;20406;-44
2021/11/08 11:08:31;;;;;;;7.63;6.78;;;;;;;8.47;73.61;101335.47;4997271;28;20030;-44
2021/11/08 11:11:08;;;;;;;8.65;6.68;;;;;;;8.45;73.75;101327.59;5002655;28;20038;-44
2021/11/08 11:13:53;;;;;;;7.22;5.03;;;;;;;8.45;73.67;101326.69;4994173;28;20037;-44
2021/11/08 11:16:38;;;;;;;6.18;5.65;;;;;;;8.45;73.67;101338.13;4999651;28;20110;-44
2021/11/08 11:19:08;;;;;;;7.53;5.60;;;;;;;8.44;73.68;101335.47;4993351;28;20077;-44
2021/11/08 11:21:35;;;;;;;10.90;7.25;;;;;;;8.45;73.72;101339.84;4999563;28;20146;-45
2021/11/08 11:24:03;;;;;;;10.10;8.70;;;;;;;8.43;73.81;101334.56;4997916;28;20034;-45
2021/11/08 11:26:31;;;;;;;9.45;8.07;;;;;;;8.44;73.68;101340.72;5007043;28;20085;-44
2021/11/08 11:28:58;;;;;;;9.02;8.10;;;;;;;8.45;73.90;101339.84;4999030;28;20033;-44
2021/11/08 11:31:25;;;;;;;8.20;7.40;;;;;;;8.43;73.69;101336.31;5008053;28;20053;-44
2021/11/08 11:33:54;;;;;;;8.52;6.85;;;;;;;8.43;73.60;101339.81;4993301;28;20080;-44
2021/11/08 11:36:20;;;;;;;9.80;7.72;;;;;;;8.42;73.61;101338.06;5026884;28;20018;-44
2021/11/08 11:38:52;;;;;;;9.70;7.15;;;;;;;8.44;73.71;101340.72;5002270;28;20034;-44
2021/11/08 11:41:20;;;;;;;9.18;7.47;;;;;;;8.45;73.59;101337.22;5005662;28;20104;-44
2021/11/08 11:43:59;;;;;;;8.23;7.25;;;;;;;8.43;73.65;101337.19;4997119;28;20037;-45
2021/11/08 11:46:27;;;;;;;7.85;6.80;;;;;;;8.44;73.64;101335.47;4993108;28;20034;-44
2021/11/08 11:48:55;;;;;;;7.18;6.53;;;;;;;8.44;73.62;101343.34;5009882;28;20446;-45
2021/11/08 11:51:29;;;;;;;9.18;6.70;;;;;;;8.43;73.79;101342.47;5010546;28;20022;-44
2021/11/08 11:53:59;;;;;;;10.02;6.22;;;;;;;8.43;73.72;101345.09;5010727;28;20030;-44
2021/11/08 11:56:27;;;;;;;7.97;7.07;;;;;;;8.44;73.57;101340.72;4998956;28;20050;-44
2021/11/08 11:58:53;;;;;;;6.95;6.20;;;;;;;8.42;73.73;101338.06;4983021;28;20040;-44
2021/11/08 12:01:21;;;;;;;10.07;7.53;;;;;;;8.42;73.61;101343.31;5008325;28;20390;-44
2021/11/08 12:03:48;;;;;;;8.63;6.72;;;;;;;8.42;73.63;101348.59;5009042;28;20029;-44
2021/11/08 12:06:16;;;;;;;10.80;6.57;;;;;;;8.43;73.68;101338.94;5011667;28;20081;-44
2021/11/08 12:08:44;;;;;;;7.13;6.38;;;;;;;8.43;73.67;101336.31;5003349;28;20030;-44
2021/11/08 12:11:10;;;;;;;6.63;5.93;;;;;;;8.43;73.49;101331.03;4994265;28;20013;-44
2021/11/08 12:13:51;;;;;;;8.13;5.50;;;;;;;8.43;73.59;101338.94;5002083;28;20113;-44
2021/11/08 12:16:18;;;;;;;;;;;;;;;8.42;73.47;101343.31;4997974;28;20022;-44
2021/11/08 12:18:50;;;;;;;7.65;5.88;;;;;;;8.42;73.64;101334.56;4994454;28;20380;-44
2021/11/08 12:21:27;;;;;;;8.55;5.82;;;;;;;8.40;73.86;101336.31;5011662;28;20083;-45
2021/11/08 12:23:53;;;;;;;7.90;6.20;;;;;;;8.40;73.48;101329.28;5011255;28;20033;-45
2021/11/08 12:26:22;;;;;;;8.43;5.47;;;;;;;8.41;73.63;101328.41;4998814;28;20030;-44
2021/11/08 12:28:48;;;;;;;7.68;5.65;;;;;;;8.43;73.67;101328.41;5010036;28;20080;-45
2021/11/08 12:31:20;;;;;;;7.40;5.47;;;;;;;8.42;73.52;101322.31;5006073;28;20034;-44
2021/11/08 12:34:13;;;;;;;7.97;5.22;;;;;;;8.43;73.49;101328.41;5006895;28;20073;-44
2021/11/08 12:36:40;;;;;;;6.53;5.25;;;;;;;8.43;73.75;101325.78;4991869;28;20063;-44
2021/11/08 12:39:11;;;;;;;6.00;4.97;;;;;;;8.43;73.82;101328.41;4997039;28;20033;-45
2021/11/08 12:42:06;;;;;;;6.95;5.40;;;;;;;8.44;73.67;101322.31;5003874;28;20026;-44
2021/11/08 12:44:38;;;;;;;6.90;5.15;;;;;;;8.43;73.70;101320.53;4995803;28;20042;-44
2021/11/08 12:47:06;;;;;;;8.18;5.22;;;;;;;8.44;73.69;101324.94;4996084;28;20073;-44
2021/11/08 12:49:34;;;;;;;5.45;4.82;;;;;;;8.44;73.60;101327.56;5000128;28;20033;-44
2021/11/08 12:52:20;;;;;;;6.18;4.80;;;;;;;8.45;73.68;101321.44;5002713;28;20513;-44
2021/11/08 12:54:45;;;;;;;6.03;5.18;;;;;;;8.44;73.63;101320.56;5000471;28;20103;-44
2021/11/08 12:57:12;;;;;;;6.25;4.82;;;;;;;8.45;73.48;101321.44;5009246;28;20481;-44
2021/11/08 12:59:50;;;;;;;7.65;5.97;;;;;;;8.45;73.55;101316.19;5005161;28;20037;-45
2021/11/08 13:02:24;;;;;;;6.40;4.57;;;;;;;8.46;73.56;101329.34;5009983;28;20041;-44
2021/11/08 13:04:50;;;;;;;7.38;4.75;;;;;;;8.46;73.54;101317.94;4999457;28;20025;-44
2021/11/08 13:07:18;;;;;;;5.85;4.88;;;;;;;8.47;73.48;101319.69;4995670;28;20053;-44
2021/11/08 13:09:48;;;;;;;5.63;4.72;;;;;;;8.48;73.59;101317.09;5006161;28;20029;-45
2021/11/08 13:12:17;;;;;;;5.72;4.57;;;;;;;8.46;73.62;101315.31;5002632;28;20474;-44
2021/11/08 13:14:44;;;;;;;6.60;4.50;;;;;;;8.49;73.54;101317.97;5015086;28;20038;-45
2021/11/08 13:17:14;;;;;;;7.35;4.45;;;;;;;8.48;73.47;101313.59;5007124;28;20021;-45
2021/11/08 13:19:50;;;;;;;8.05;5.28;;;;;;;8.48;73.67;101316.22;5007074;28;20026;-44